sensor_id;sensor_type;location;lat;lon;timestamp;pressure;altitude;pressure_sealevel;temperature;humidity
74798;BME280;63326;45.088;7.658;2024-02-23T00:01:12;97184.13;;;6.64;100.00
74798;BME280;63326;45.088;7.658;2024-02-23T00:03:40;97176.56;;;6.67;100.00
74798;BME280;63326;45.088;7.658;2024-02-23T00:06:07;97181.91;;;6.67;100.00
74798;BME280;63326;45.088;7.658;2024-02-23T00:08:37;97186.00;;;6.70;100.00
74798;BME280;63326;45.088;7.658;2024-02-23T00:11:06;97181.28;;;6.72;100.00
74798;BME280;63326;45.088;7.658;2024-02-23T00:13:35;97168.56;;;6.67;100.00
74798;BME280;63326;45.088;7.658;2024-02-23T00:16:03;97109.97;;;6.33;100.00
74798;BME280;63326;45.088;7.658;2024-02-23T00:18:30;97149.84;;;6.54;100.00
74798;BME280;63326;45.088;7.658;2024-02-23T00:21:01;97168.75;;;6.66;100.00
74798;BME280;63326;45.088;7.658;2024-02-23T00:23:28;97169.78;;;6.58;100.00
74798;BME280;63326;45.088;7.658;2024-02-23T00:25:55;97147.13;;;6.41;100.00
74798;BME280;63326;45.088;7.658;2024-02-23T00:28:25;97158.03;;;6.46;100.00
74798;BME280;63326;45.088;7.658;2024-02-23T00:30:53;97169.31;;;6.48;100.00
74798;BME280;63326;45.088;7.658;2024-02-23T00:33:21;97139.94;;;6.41;100.00
74798;BME280;63326;45.088;7.658;2024-02-23T00:35:47;97158.47;;;6.56;100.00
74798;BME280;63326;45.088;7.658;2024-02-23T00:38:15;97148.34;;;6.45;100.00
74798;BME280;63326;45.088;7.658;2024-02-23T00:40:42;97151.69;;;6.47;100.00
74798;BME280;63326;45.088;7.658;2024-02-23T00:43:09;97152.69;;;6.46;100.00
74798;BME280;63326;45.088;7.658;2024-02-23T00:45:36;97139.16;;;6.47;100.00
74798;BME280;63326;45.088;7.658;2024-02-23T00:48:04;97122.94;;;6.42;100.00
74798;BME280;63326;45.088;7.658;2024-02-23T00:50:32;97135.47;;;6.48;100.00
74798;BME280;63326;45.088;7.658;2024-02-23T00:53:01;97146.13;;;6.55;100.00
74798;BME280;63326;45.088;7.658;2024-02-23T00:55:30;97136.50;;;6.47;100.00
74798;BME280;63326;45.088;7.658;2024-02-23T00:57:57;97127.22;;;6.43;100.00
74798;BME280;63326;45.088;7.658;2024-02-23T01:00:26;97138.09;;;6.42;100.00
74798;BME280;63326;45.088;7.658;2024-02-23T01:02:53;97122.28;;;6.34;100.00
74798;BME280;63326;45.088;7.658;2024-02-23T01:05:21;97108.13;;;6.33;100.00
74798;BME280;63326;45.088;7.658;2024-02-23T01:07:51;97081.63;;;6.25;100.00
74798;BME280;63326;45.088;7.658;2024-02-23T01:10:20;97101.38;;;6.37;100.00
74798;BME280;63326;45.088;7.658;2024-02-23T01:12:47;97101.38;;;6.44;100.00
74798;BME280;63326;45.088;7.658;2024-02-23T01:15:15;97099.75;;;6.36;100.00
74798;BME280;63326;45.088;7.658;2024-02-23T01:17:42;97077.69;;;6.08;100.00
74798;BME280;63326;45.088;7.658;2024-02-23T01:20:10;97099.00;;;6.08;100.00
74798;BME280;63326;45.088;7.658;2024-02-23T01:22:37;97099.22;;;6.06;100.00
74798;BME280;63326;45.088;7.658;2024-02-23T01:25:05;97050.84;;;5.68;100.00
74798;BME280;63326;45.088;7.658;2024-02-23T01:27:37;97084.41;;;6.04;100.00
74798;BME280;63326;45.088;7.658;2024-02-23T01:30:10;97086.97;;;6.18;100.00
74798;BME280;63326;45.088;7.658;2024-02-23T01:32:40;97074.22;;;6.14;100.00
74798;BME280;63326;45.088;7.658;2024-02-23T01:35:09;97067.03;;;6.14;100.00
74798;BME280;63326;45.088;7.658;2024-02-23T01:37:38;97053.09;;;6.06;100.00
74798;BME280;63326;45.088;7.658;2024-02-23T01:40:06;97031.09;;;5.90;100.00
74798;BME280;63326;45.088;7.658;2024-02-23T01:42:33;97049.72;;;5.90;100.00
74798;BME280;63326;45.088;7.658;2024-02-23T01:45:07;97052.81;;;5.87;100.00
74798;BME280;63326;45.088;7.658;2024-02-23T01:47:34;97037.59;;;5.75;100.00
74798;BME280;63326;45.088;7.658;2024-02-23T01:50:03;97012.75;;;5.68;100.00
74798;BME280;63326;45.088;7.658;2024-02-23T01:52:31;97013.38;;;5.70;100.00
74798;BME280;63326;45.088;7.658;2024-02-23T01:54:58;97011.53;;;5.70;100.00
74798;BME280;63326;45.088;7.658;2024-02-23T01:57:27;97009.63;;;5.64;100.00
74798;BME280;63326;45.088;7.658;2024-02-23T02:00:16;96995.72;;;5.62;100.00
74798;BME280;63326;45.088;7.658;2024-02-23T02:02:54;96990.63;;;5.67;100.00
74798;BME280;63326;45.088;7.658;2024-02-23T02:05:25;96957.56;;;5.48;100.00
74798;BME280;63326;45.088;7.658;2024-02-23T02:07:56;96984.22;;;5.55;100.00
74798;BME280;63326;45.088;7.658;2024-02-23T02:10:27;97000.41;;;5.60;100.00
74798;BME280;63326;45.088;7.658;2024-02-23T02:13:02;96993.88;;;5.62;100.00
74798;BME280;63326;45.088;7.658;2024-02-23T02:15:30;96927.91;;;5.17;100.00
74798;BME280;63326;45.088;7.658;2024-02-23T02:17:58;96974.31;;;5.42;100.00
74798;BME280;63326;45.088;7.658;2024-02-23T02:20:25;96962.41;;;5.38;100.00
74798;BME280;63326;45.088;7.658;2024-02-23T02:22:56;96939.03;;;5.27;100.00
74798;BME280;63326;45.088;7.658;2024-02-23T02:25:24;96957.09;;;5.38;100.00
74798;BME280;63326;45.088;7.658;2024-02-23T02:27:51;96922.59;;;5.17;100.00
74798;BME280;63326;45.088;7.658;2024-02-23T02:30:18;96942.16;;;5.37;100.00
74798;BME280;63326;45.088;7.658;2024-02-23T02:32:46;96913.44;;;5.32;100.00
74798;BME280;63326;45.088;7.658;2024-02-23T02:35:15;96917.78;;;5.40;100.00
74798;BME280;63326;45.088;7.658;2024-02-23T02:37:44;96904.47;;;5.40;100.00
74798;BME280;63326;45.088;7.658;2024-02-23T02:40:14;96902.81;;;5.32;100.00
74798;BME280;63326;45.088;7.658;2024-02-23T02:42:43;96913.66;;;5.31;100.00
74798;BME280;63326;45.088;7.658;2024-02-23T02:45:11;96911.81;;;5.31;100.00
74798;BME280;63326;45.088;7.658;2024-02-23T02:47:42;96907.72;;;5.29;100.00
74798;BME280;63326;45.088;7.658;2024-02-23T02:50:09;96900.13;;;5.26;100.00
74798;BME280;63326;45.088;7.658;2024-02-23T02:52:39;96896.88;;;5.30;100.00
74798;BME280;63326;45.088;7.658;2024-02-23T02:55:10;96884.63;;;5.36;100.00
74798;BME280;63326;45.088;7.658;2024-02-23T02:57:44;96883.44;;;5.45;100.00
74798;BME280;63326;45.088;7.658;2024-02-23T03:00:11;96879.69;;;5.40;100.00
74798;BME280;63326;45.088;7.658;2024-02-23T03:02:38;96875.88;;;5.55;100.00
74798;BME280;63326;45.088;7.658;2024-02-23T03:05:06;96884.94;;;5.68;100.00
74798;BME280;63326;45.088;7.658;2024-02-23T03:07:35;96892.53;;;5.77;100.00
74798;BME280;63326;45.088;7.658;2024-02-23T03:10:06;96895.56;;;5.68;100.00
74798;BME280;63326;45.088;7.658;2024-02-23T03:12:34;96908.06;;;5.74;100.00
74798;BME280;63326;45.088;7.658;2024-02-23T03:15:03;96876.69;;;5.62;100.00
74798;BME280;63326;45.088;7.658;2024-02-23T03:17:32;96878.34;;;5.63;100.00
74798;BME280;63326;45.088;7.658;2024-02-23T03:20:01;96880.38;;;5.61;100.00
74798;BME280;63326;45.088;7.658;2024-02-23T03:22:35;96901.09;;;5.73;100.00
74798;BME280;63326;45.088;7.658;2024-02-23T03:25:07;96919.78;;;5.79;100.00
74798;BME280;63326;45.088;7.658;2024-02-23T03:27:40;96917.53;;;5.76;100.00
74798;BME280;63326;45.088;7.658;2024-02-23T03:30:08;96915.06;;;5.75;100.00
74798;BME280;63326;45.088;7.658;2024-02-23T03:32:36;96929.38;;;5.74;100.00
74798;BME280;63326;45.088;7.658;2024-02-23T03:35:04;96911.94;;;5.58;100.00
74798;BME280;63326;45.088;7.658;2024-02-23T03:37:33;96917.66;;;5.61;100.00
74798;BME280;63326;45.088;7.658;2024-02-23T03:40:04;96926.09;;;5.65;100.00
74798;BME280;63326;45.088;7.658;2024-02-23T03:42:31;96932.03;;;5.74;100.00
74798;BME280;63326;45.088;7.658;2024-02-23T03:45:04;96941.50;;;5.76;100.00
74798;BME280;63326;45.088;7.658;2024-02-23T03:47:33;96934.28;;;5.70;100.00
74798;BME280;63326;45.088;7.658;2024-02-23T03:50:01;96939.22;;;5.73;100.00
74798;BME280;63326;45.088;7.658;2024-02-23T03:52:30;96948.66;;;5.76;100.00
74798;BME280;63326;45.088;7.658;2024-02-23T03:55:00;96948.63;;;5.69;100.00
74798;BME280;63326;45.088;7.658;2024-02-23T03:57:28;96956.44;;;5.84;100.00
74798;BME280;63326;45.088;7.658;2024-02-23T03:59:57;96986.03;;;6.02;100.00
74798;BME280;63326;45.088;7.658;2024-02-23T04:02:24;96954.81;;;5.83;100.00
74798;BME280;63326;45.088;7.658;2024-02-23T04:04:57;96987.88;;;6.02;100.00
74798;BME280;63326;45.088;7.658;2024-02-23T04:07:27;96984.59;;;6.00;100.00
74798;BME280;63326;45.088;7.658;2024-02-23T04:09:54;96981.06;;;5.92;100.00
74798;BME280;63326;45.088;7.658;2024-02-23T04:12:27;96971.00;;;5.81;100.00
74798;BME280;63326;45.088;7.658;2024-02-23T04:14:57;96946.19;;;5.68;100.00
74798;BME280;63326;45.088;7.658;2024-02-23T04:17:25;96962.59;;;5.84;100.00
74798;BME280;63326;45.088;7.658;2024-02-23T04:19:52;96940.88;;;5.81;100.00
74798;BME280;63326;45.088;7.658;2024-02-23T04:22:24;96934.16;;;5.85;100.00
74798;BME280;63326;45.088;7.658;2024-02-23T04:24:51;96933.13;;;5.92;100.00
74798;BME280;63326;45.088;7.658;2024-02-23T04:27:18;96938.44;;;5.92;100.00
74798;BME280;63326;45.088;7.658;2024-02-23T04:29:45;96904.63;;;5.80;100.00
74798;BME280;63326;45.088;7.658;2024-02-23T04:32:14;96941.13;;;5.92;100.00
74798;BME280;63326;45.088;7.658;2024-02-23T04:34:43;96955.47;;;5.91;100.00
74798;BME280;63326;45.088;7.658;2024-02-23T04:37:11;96957.09;;;5.92;100.00
74798;BME280;63326;45.088;7.658;2024-02-23T04:39:39;96965.91;;;5.93;100.00
74798;BME280;63326;45.088;7.658;2024-02-23T04:42:08;96977.38;;;5.93;100.00
74798;BME280;63326;45.088;7.658;2024-02-23T04:44:35;96989.06;;;5.92;100.00
74798;BME280;63326;45.088;7.658;2024-02-23T04:47:03;96988.88;;;5.87;100.00
74798;BME280;63326;45.088;7.658;2024-02-23T04:49:31;96989.69;;;5.88;100.00
74798;BME280;63326;45.088;7.658;2024-02-23T04:51:58;96956.81;;;5.74;100.00
74798;BME280;63326;45.088;7.658;2024-02-23T04:54:26;96927.75;;;5.66;100.00
74798;BME280;63326;45.088;7.658;2024-02-23T04:57:08;96924.06;;;5.74;100.00
74798;BME280;63326;45.088;7.658;2024-02-23T04:59:36;96898.66;;;5.64;100.00
74798;BME280;63326;45.088;7.658;2024-02-23T05:02:04;96879.16;;;5.64;100.00
74798;BME280;63326;45.088;7.658;2024-02-23T05:04:31;96783.19;;;5.11;100.00
74798;BME280;63326;45.088;7.658;2024-02-23T05:06:59;96842.84;;;5.43;100.00
74798;BME280;63326;45.088;7.658;2024-02-23T05:09:28;96884.31;;;5.66;100.00
74798;BME280;63326;45.088;7.658;2024-02-23T05:11:55;96863.38;;;5.56;100.00
74798;BME280;63326;45.088;7.658;2024-02-23T05:14:22;96889.19;;;5.62;100.00
74798;BME280;63326;45.088;7.658;2024-02-23T05:16:49;96897.38;;;5.60;100.00
74798;BME280;63326;45.088;7.658;2024-02-23T05:19:19;96888.50;;;5.40;100.00
74798;BME280;63326;45.088;7.658;2024-02-23T05:21:53;96919.88;;;5.51;100.00
74798;BME280;63326;45.088;7.658;2024-02-23T05:24:20;96843.19;;;5.20;100.00
74798;BME280;63326;45.088;7.658;2024-02-23T05:26:47;96900.06;;;5.60;100.00
74798;BME280;63326;45.088;7.658;2024-02-23T05:29:14;96889.38;;;5.47;100.00
74798;BME280;63326;45.088;7.658;2024-02-23T05:31:46;96916.44;;;5.57;100.00
74798;BME280;63326;45.088;7.658;2024-02-23T05:34:17;96926.06;;;5.58;100.00
74798;BME280;63326;45.088;7.658;2024-02-23T05:36:46;96931.00;;;5.68;100.00
74798;BME280;63326;45.088;7.658;2024-02-23T05:39:15;96931.66;;;5.77;100.00
74798;BME280;63326;45.088;7.658;2024-02-23T05:41:42;96933.72;;;5.75;100.00
74798;BME280;63326;45.088;7.658;2024-02-23T05:44:10;96926.72;;;5.67;100.00
74798;BME280;63326;45.088;7.658;2024-02-23T05:46:39;96962.16;;;5.74;100.00
74798;BME280;63326;45.088;7.658;2024-02-23T05:49:08;96956.81;;;5.74;100.00
74798;BME280;63326;45.088;7.658;2024-02-23T05:51:41;96941.91;;;5.80;100.00
74798;BME280;63326;45.088;7.658;2024-02-23T05:54:09;96958.34;;;5.90;100.00
74798;BME280;63326;45.088;7.658;2024-02-23T05:56:37;96948.25;;;5.79;100.00
74798;BME280;63326;45.088;7.658;2024-02-23T05:59:08;96963.63;;;5.83;100.00
74798;BME280;63326;45.088;7.658;2024-02-23T06:01:35;96964.25;;;5.79;100.00
74798;BME280;63326;45.088;7.658;2024-02-23T06:04:04;96957.03;;;5.73;100.00
74798;BME280;63326;45.088;7.658;2024-02-23T06:06:33;96933.66;;;5.61;100.00
74798;BME280;63326;45.088;7.658;2024-02-23T06:09:01;96943.47;;;5.61;100.00
74798;BME280;63326;45.088;7.658;2024-02-23T06:11:30;96946.19;;;5.68;100.00
74798;BME280;63326;45.088;7.658;2024-02-23T06:13:57;96924.19;;;5.52;100.00
74798;BME280;63326;45.088;7.658;2024-02-23T06:16:24;96950.69;;;5.74;100.00
74798;BME280;63326;45.088;7.658;2024-02-23T06:18:54;96954.56;;;5.71;100.00
74798;BME280;63326;45.088;7.658;2024-02-23T06:21:23;96955.59;;;5.70;100.00
74798;BME280;63326;45.088;7.658;2024-02-23T06:23:50;96953.59;;;5.79;100.00
74798;BME280;63326;45.088;7.658;2024-02-23T06:26:19;96951.28;;;5.69;100.00
74798;BME280;63326;45.088;7.658;2024-02-23T06:28:46;96935.06;;;5.57;100.00
74798;BME280;63326;45.088;7.658;2024-02-23T06:31:15;96956.00;;;5.67;100.00
74798;BME280;63326;45.088;7.658;2024-02-23T06:33:42;96954.75;;;5.63;100.00
74798;BME280;63326;45.088;7.658;2024-02-23T06:36:09;96959.91;;;5.64;100.00
74798;BME280;63326;45.088;7.658;2024-02-23T06:38:38;96955.31;;;5.52;100.00
74798;BME280;63326;45.088;7.658;2024-02-23T06:41:07;96929.03;;;5.35;100.00
74798;BME280;63326;45.088;7.658;2024-02-23T06:43:39;96949.78;;;5.47;100.00
74798;BME280;63326;45.088;7.658;2024-02-23T06:46:08;96950.19;;;5.44;100.00
74798;BME280;63326;45.088;7.658;2024-02-23T06:48:37;96931.50;;;5.37;100.00
74798;BME280;63326;45.088;7.658;2024-02-23T06:51:06;96940.56;;;5.49;100.00
74798;BME280;63326;45.088;7.658;2024-02-23T06:53:36;96906.31;;;5.40;100.00
74798;BME280;63326;45.088;7.658;2024-02-23T06:56:05;96920.94;;;5.63;100.00
74798;BME280;63326;45.088;7.658;2024-02-23T06:58:34;96900.41;;;5.44;100.00
74798;BME280;63326;45.088;7.658;2024-02-23T07:01:02;96954.13;;;5.61;100.00
74798;BME280;63326;45.088;7.658;2024-02-23T07:03:33;96916.56;;;5.36;100.00
74798;BME280;63326;45.088;7.658;2024-02-23T07:06:08;96973.59;;;5.61;100.00
74798;BME280;63326;45.088;7.658;2024-02-23T07:08:38;96970.72;;;5.63;100.00
74798;BME280;63326;45.088;7.658;2024-02-23T07:11:07;96937.28;;;5.47;100.00
74798;BME280;63326;45.088;7.658;2024-02-23T07:13:35;96947.19;;;5.67;100.00
74798;BME280;63326;45.088;7.658;2024-02-23T07:16:11;96913.97;;;5.56;100.00
74798;BME280;63326;45.088;7.658;2024-02-23T07:18:40;96934.50;;;5.69;100.00
74798;BME280;63326;45.088;7.658;2024-02-23T07:21:08;96928.13;;;5.63;100.00
74798;BME280;63326;45.088;7.658;2024-02-23T07:23:35;96923.22;;;5.67;100.00
74798;BME280;63326;45.088;7.658;2024-02-23T07:26:03;96945.34;;;5.74;100.00
74798;BME280;63326;45.088;7.658;2024-02-23T07:28:36;96915.16;;;5.53;100.00
74798;BME280;63326;45.088;7.658;2024-02-23T07:31:03;96935.34;;;5.76;100.00
74798;BME280;63326;45.088;7.658;2024-02-23T07:33:32;96939.72;;;6.03;100.00
74798;BME280;63326;45.088;7.658;2024-02-23T07:35:59;96880.47;;;5.88;100.00
74798;BME280;63326;45.088;7.658;2024-02-23T07:38:25;96911.25;;;6.17;100.00
74798;BME280;63326;45.088;7.658;2024-02-23T07:40:52;96842.75;;;5.78;100.00
74798;BME280;63326;45.088;7.658;2024-02-23T07:43:19;96918.84;;;6.27;100.00
74798;BME280;63326;45.088;7.658;2024-02-23T07:45:48;96937.53;;;6.40;100.00
74798;BME280;63326;45.088;7.658;2024-02-23T07:48:15;96887.63;;;5.94;100.00
74798;BME280;63326;45.088;7.658;2024-02-23T07:50:43;96835.06;;;5.42;100.00
74798;BME280;63326;45.088;7.658;2024-02-23T07:53:12;96939.31;;;6.06;100.00
74798;BME280;63326;45.088;7.658;2024-02-23T07:55:42;96943.41;;;6.02;100.00
74798;BME280;63326;45.088;7.658;2024-02-23T07:58:13;96938.91;;;6.09;100.00
74798;BME280;63326;45.088;7.658;2024-02-23T08:00:43;96929.88;;;6.04;100.00
74798;BME280;63326;45.088;7.658;2024-02-23T08:03:15;96797.56;;;5.30;100.00
74798;BME280;63326;45.088;7.658;2024-02-23T08:05:44;96826.53;;;5.73;100.00
74798;BME280;63326;45.088;7.658;2024-02-23T08:08:26;96868.59;;;6.10;100.00
74798;BME280;63326;45.088;7.658;2024-02-23T08:10:56;96838.63;;;5.82;100.00
74798;BME280;63326;45.088;7.658;2024-02-23T08:13:23;96901.19;;;5.99;100.00
74798;BME280;63326;45.088;7.658;2024-02-23T08:15:50;96868.78;;;5.89;100.00
74798;BME280;63326;45.088;7.658;2024-02-23T08:18:22;96900.19;;;6.33;100.00
74798;BME280;63326;45.088;7.658;2024-02-23T08:20:56;96889.72;;;6.32;100.00
74798;BME280;63326;45.088;7.658;2024-02-23T08:24:19;96819.63;;;5.98;100.00
74798;BME280;63326;45.088;7.658;2024-02-23T08:27:07;96832.72;;;6.13;100.00
74798;BME280;63326;45.088;7.658;2024-02-23T08:29:37;96862.25;;;6.38;100.00
74798;BME280;63326;45.088;7.658;2024-02-23T08:32:07;96821.66;;;6.09;100.00
74798;BME280;63326;45.088;7.658;2024-02-23T08:34:56;96879.06;;;6.38;100.00
74798;BME280;63326;45.088;7.658;2024-02-23T08:38:05;96911.88;;;6.52;100.00
74798;BME280;63326;45.088;7.658;2024-02-23T08:41:33;96960.50;;;6.80;100.00
74798;BME280;63326;45.088;7.658;2024-02-23T08:47:18;96754.22;;;6.02;100.00
74798;BME280;63326;45.088;7.658;2024-02-23T08:49:55;96760.53;;;6.34;100.00
74798;BME280;63326;45.088;7.658;2024-02-23T08:52:30;96836.91;;;7.00;100.00
74798;BME280;63326;45.088;7.658;2024-02-23T08:55:23;96935.53;;;7.98;100.00
74798;BME280;63326;45.088;7.658;2024-02-23T08:57:53;96933.06;;;8.34;100.00
74798;BME280;63326;45.088;7.658;2024-02-23T09:00:27;96793.34;;;7.89;100.00
74798;BME280;63326;45.088;7.658;2024-02-23T09:03:05;96828.31;;;8.37;100.00
74798;BME280;63326;45.088;7.658;2024-02-23T09:06:38;96914.81;;;9.43;100.00
74798;BME280;63326;45.088;7.658;2024-02-23T09:09:56;96854.91;;;9.37;98.08
74798;BME280;63326;45.088;7.658;2024-02-23T09:13:12;96931.53;;;9.75;100.00
74798;BME280;63326;45.088;7.658;2024-02-23T09:16:16;96886.66;;;9.52;96.28
74798;BME280;63326;45.088;7.658;2024-02-23T09:19:04;96924.81;;;9.84;94.26
74798;BME280;63326;45.088;7.658;2024-02-23T09:21:43;96891.34;;;9.38;94.84
74798;BME280;63326;45.088;7.658;2024-02-23T09:24:22;96884.63;;;9.10;97.19
74798;BME280;63326;45.088;7.658;2024-02-23T09:27:12;96845.16;;;8.63;97.69
74798;BME280;63326;45.088;7.658;2024-02-23T09:32:41;96931.66;;;8.57;100.00
74798;BME280;63326;45.088;7.658;2024-02-23T09:35:27;96862.84;;;7.44;100.00
74798;BME280;63326;45.088;7.658;2024-02-23T09:37:56;96763.41;;;6.33;100.00
74798;BME280;63326;45.088;7.658;2024-02-23T09:40:24;96773.16;;;6.78;100.00
74798;BME280;63326;45.088;7.658;2024-02-23T09:43:00;96842.56;;;7.68;100.00
74798;BME280;63326;45.088;7.658;2024-02-23T09:45:30;96929.25;;;8.73;100.00
74798;BME280;63326;45.088;7.658;2024-02-23T09:48:05;96927.38;;;8.99;100.00
74798;BME280;63326;45.088;7.658;2024-02-23T09:50:34;96865.78;;;8.80;100.00
74798;BME280;63326;45.088;7.658;2024-02-23T09:53:05;96898.16;;;9.22;100.00
74798;BME280;63326;45.088;7.658;2024-02-23T09:55:35;96912.19;;;9.54;100.00
74798;BME280;63326;45.088;7.658;2024-02-23T09:58:17;96915.31;;;10.00;98.10
74798;BME280;63326;45.088;7.658;2024-02-23T10:00:47;96837.75;;;9.86;93.90
74798;BME280;63326;45.088;7.658;2024-02-23T10:03:14;96840.09;;;10.24;91.26
74798;BME280;63326;45.088;7.658;2024-02-23T10:05:42;96866.53;;;10.86;86.84
74798;BME280;63326;45.088;7.658;2024-02-23T10:08:16;96843.13;;;10.75;85.86
74798;BME280;63326;45.088;7.658;2024-02-23T10:10:58;96899.66;;;11.15;85.38
74798;BME280;63326;45.088;7.658;2024-02-23T10:13:33;96807.88;;;10.71;83.07
74798;BME280;63326;45.088;7.658;2024-02-23T10:16:03;96734.50;;;10.54;80.93
74798;BME280;63326;45.088;7.658;2024-02-23T10:18:41;96908.19;;;11.87;77.04
74798;BME280;63326;45.088;7.658;2024-02-23T10:21:09;96827.00;;;11.90;72.97
74798;BME280;63326;45.088;7.658;2024-02-23T10:23:40;96803.44;;;12.60;70.17
74798;BME280;63326;45.088;7.658;2024-02-23T10:26:10;96880.34;;;13.66;67.89
74798;BME280;63326;45.088;7.658;2024-02-23T10:28:40;96918.41;;;15.00;62.04
74798;BME280;63326;45.088;7.658;2024-02-23T10:31:10;96830.00;;;15.48;55.39
74798;BME280;63326;45.088;7.658;2024-02-23T10:33:40;96901.47;;;16.35;53.65
74798;BME280;63326;45.088;7.658;2024-02-23T10:36:17;96898.75;;;17.52;50.36
74798;BME280;63326;45.088;7.658;2024-02-23T10:38:55;96860.19;;;17.60;47.36
74798;BME280;63326;45.088;7.658;2024-02-23T10:41:26;96864.53;;;17.66;47.05
74798;BME280;63326;45.088;7.658;2024-02-23T10:43:58;96857.34;;;16.65;48.62
74798;BME280;63326;45.088;7.658;2024-02-23T10:46:34;96887.63;;;16.26;51.67
74798;BME280;63326;45.088;7.658;2024-02-23T10:49:14;96792.72;;;15.65;50.86
74798;BME280;63326;45.088;7.658;2024-02-23T10:51:49;96774.28;;;15.52;50.63
74798;BME280;63326;45.088;7.658;2024-02-23T10:54:16;96872.13;;;15.96;51.75
74798;BME280;63326;45.088;7.658;2024-02-23T10:56:48;96887.03;;;15.36;51.53
74798;BME280;63326;45.088;7.658;2024-02-23T10:59:18;96916.03;;;15.08;53.82
74798;BME280;63326;45.088;7.658;2024-02-23T11:01:48;96915.34;;;14.59;54.94
74798;BME280;63326;45.088;7.658;2024-02-23T11:04:21;96890.00;;;14.33;56.23
74798;BME280;63326;45.088;7.658;2024-02-23T11:06:51;96908.84;;;15.72;53.08
74798;BME280;63326;45.088;7.658;2024-02-23T11:09:22;96898.28;;;16.68;49.67
74798;BME280;63326;45.088;7.658;2024-02-23T11:11:57;96902.22;;;17.83;47.19
74798;BME280;63326;45.088;7.658;2024-02-23T11:14:35;96872.44;;;18.17;45.46
74798;BME280;63326;45.088;7.658;2024-02-23T11:17:04;96903.16;;;18.62;43.30
74798;BME280;63326;45.088;7.658;2024-02-23T11:19:39;96890.06;;;18.19;44.97
74798;BME280;63326;45.088;7.658;2024-02-23T11:22:10;96899.31;;;18.23;44.61
74798;BME280;63326;45.088;7.658;2024-02-23T11:24:49;96907.41;;;18.28;44.67
74798;BME280;63326;45.088;7.658;2024-02-23T11:27:24;96897.91;;;18.31;44.29
74798;BME280;63326;45.088;7.658;2024-02-23T11:29:59;96914.53;;;18.19;42.99
74798;BME280;63326;45.088;7.658;2024-02-23T11:32:46;96846.09;;;17.48;44.67
74798;BME280;63326;45.088;7.658;2024-02-23T11:35:17;96859.88;;;17.82;45.46
74798;BME280;63326;45.088;7.658;2024-02-23T11:37:52;96816.19;;;16.47;46.08
74798;BME280;63326;45.088;7.658;2024-02-23T11:40:32;96831.34;;;16.84;45.29
74798;BME280;63326;45.088;7.658;2024-02-23T11:43:01;96897.97;;;17.41;46.17
74798;BME280;63326;45.088;7.658;2024-02-23T11:45:30;96883.25;;;17.57;45.10
74798;BME280;63326;45.088;7.658;2024-02-23T11:47:58;96776.03;;;16.85;44.94
74798;BME280;63326;45.088;7.658;2024-02-23T11:50:31;96828.84;;;17.13;45.96
74798;BME280;63326;45.088;7.658;2024-02-23T11:53:11;96879.59;;;16.77;46.71
74798;BME280;63326;45.088;7.658;2024-02-23T11:55:39;96814.22;;;16.02;48.54
74798;BME280;63326;45.088;7.658;2024-02-23T11:58:06;96756.97;;;15.53;47.82
74798;BME280;63326;45.088;7.658;2024-02-23T12:00:43;96828.84;;;16.06;47.95
74798;BME280;63326;45.088;7.658;2024-02-23T12:03:10;96842.66;;;16.15;47.36
74798;BME280;63326;45.088;7.658;2024-02-23T12:05:39;96809.91;;;15.33;47.77
74798;BME280;63326;45.088;7.658;2024-02-23T12:08:06;96816.44;;;15.37;48.82
74798;BME280;63326;45.088;7.658;2024-02-23T12:10:41;96815.75;;;15.67;48.82
74798;BME280;63326;45.088;7.658;2024-02-23T12:13:13;96817.75;;;16.03;47.55
74798;BME280;63326;45.088;7.658;2024-02-23T12:15:40;96815.56;;;15.94;47.39
74798;BME280;63326;45.088;7.658;2024-02-23T12:18:10;96805.03;;;16.08;46.32
74798;BME280;63326;45.088;7.658;2024-02-23T12:20:43;96796.47;;;15.54;47.67
74798;BME280;63326;45.088;7.658;2024-02-23T12:23:13;96809.41;;;15.41;47.99
74798;BME280;63326;45.088;7.658;2024-02-23T12:25:56;96795.00;;;15.21;47.69
74798;BME280;63326;45.088;7.658;2024-02-23T12:28:27;96798.44;;;15.06;45.27
74798;BME280;63326;45.088;7.658;2024-02-23T12:31:03;96800.75;;;14.18;46.65
74798;BME280;63326;45.088;7.658;2024-02-23T12:33:35;96796.78;;;13.98;47.45
74798;BME280;63326;45.088;7.658;2024-02-23T12:36:04;96797.56;;;13.94;47.82
74798;BME280;63326;45.088;7.658;2024-02-23T12:38:31;96786.31;;;13.75;48.86
74798;BME280;63326;45.088;7.658;2024-02-23T12:41:01;96769.63;;;13.78;48.01
74798;BME280;63326;45.088;7.658;2024-02-23T12:43:30;96743.31;;;14.22;46.95
74798;BME280;63326;45.088;7.658;2024-02-23T12:46:00;96789.41;;;14.16;47.60
74798;BME280;63326;45.088;7.658;2024-02-23T12:48:30;96776.53;;;14.60;46.65
74798;BME280;63326;45.088;7.658;2024-02-23T12:51:24;96777.25;;;14.88;46.20
74798;BME280;63326;45.088;7.658;2024-02-23T12:53:54;96753.69;;;14.41;45.90
74798;BME280;63326;45.088;7.658;2024-02-23T12:56:24;96764.97;;;14.65;46.61
74798;BME280;63326;45.088;7.658;2024-02-23T12:58:53;96758.88;;;14.84;46.56
74798;BME280;63326;45.088;7.658;2024-02-23T13:01:20;96757.78;;;14.86;46.27
74798;BME280;63326;45.088;7.658;2024-02-23T13:03:49;96762.59;;;14.78;46.84
74798;BME280;63326;45.088;7.658;2024-02-23T13:06:16;96754.22;;;14.80;47.08
74798;BME280;63326;45.088;7.658;2024-02-23T13:08:43;96727.63;;;15.09;45.34
74798;BME280;63326;45.088;7.658;2024-02-23T13:11:11;96711.47;;;15.29;44.39
74798;BME280;63326;45.088;7.658;2024-02-23T13:13:41;96721.81;;;15.63;43.90
74798;BME280;63326;45.088;7.658;2024-02-23T13:16:10;96744.50;;;15.41;44.01
74798;BME280;63326;45.088;7.658;2024-02-23T13:18:39;96718.72;;;15.13;44.61
74798;BME280;63326;45.088;7.658;2024-02-23T13:21:08;96737.81;;;14.92;44.28
74798;BME280;63326;45.088;7.658;2024-02-23T13:23:38;96731.53;;;14.76;44.68
74798;BME280;63326;45.088;7.658;2024-02-23T13:26:07;96740.13;;;13.98;47.36
74798;BME280;63326;45.088;7.658;2024-02-23T13:28:38;96732.28;;;13.97;46.35